Time;durP1;ratioP1;P1;durP2;ratioP2;P2;SDS_P1;SDS_P2;PMS_P1;PMS_P2;Temp;Humidity;BMP_temperature;BMP_pressure;BME280_temperature;BME280_humidity;BME280_pressure;Samples;Min_cycle;Max_cycle;Signal;HPM_P1;HPM_P2
2023/08/15 00:01:00;;;;;;;;;5.00;4.00;;;;;23.00;52.09;100859.91;5041660;28;50367;-64
2023/08/15 00:03:25;;;;;;;;;5.00;4.00;;;;;23.00;52.12;100860.78;5041351;28;46431;-65
2023/08/15 00:05:51;;;;;;;;;5.00;3.00;;;;;23.00;52.50;100847.38;5041602;28;45215;-64
2023/08/15 00:08:16;;;;;;;;;7.25;5.00;;;;;23.01;52.04;100843.75;5041353;28;50298;-64
2023/08/15 00:10:41;;;;;;;;;8.00;4.75;;;;;23.01;52.15;100849.09;5030027;28;45342;-64
2023/08/15 00:13:07;;;;;;;;;5.50;4.25;;;;;23.01;52.56;100835.69;5037714;28;45263;-64
2023/08/15 00:15:32;;;;;;;;;8.50;6.75;;;;;23.00;52.43;100844.69;5041548;28;45343;-64
2023/08/15 00:17:57;;;;;;;;;6.75;5.25;;;;;23.02;52.53;100842.78;5041551;28;45312;-64
2023/08/15 00:20:23;;;;;;;;;5.00;3.75;;;;;23.02;52.46;100836.59;5041698;28;45289;-65
2023/08/15 00:22:48;;;;;;;;;4.50;4.00;;;;;23.00;52.52;100839.34;5040993;28;47821;-64
2023/08/15 00:25:13;;;;;;;;;3.75;3.25;;;;;23.00;52.31;100835.81;5040761;28;48932;-64
2023/08/15 00:27:39;;;;;;;;;5.00;5.00;;;;;22.97;52.55;100833.34;5041594;28;45865;-64
2023/08/15 00:30:05;;;;;;;;;3.00;3.00;;;;;22.96;52.72;100832.47;5041326;28;45562;-65
2023/08/15 00:32:35;;;;;;;;;4.75;4.00;;;;;22.95;52.77;100838.78;5041155;28;46215;-64
2023/08/15 00:35:02;;;;;;;;;4.25;4.00;;;;;22.98;52.84;100846.63;5040990;28;45446;-64
2023/08/15 00:37:27;;;;;;;;;7.50;4.50;;;;;22.98;52.79;100857.34;5041251;28;45219;-65
2023/08/15 00:39:52;;;;;;;;;5.00;5.00;;;;;23.00;52.59;100858.09;5040819;28;45250;-64
2023/08/15 00:42:18;;;;;;;;;4.25;4.25;;;;;23.01;52.87;100851.78;5040722;28;46117;-65
2023/08/15 00:44:43;;;;;;;;;7.25;6.00;;;;;22.99;52.48;100847.47;5023046;28;45273;-64
2023/08/15 00:47:09;;;;;;;;;5.25;5.25;;;;;23.02;52.72;100860.69;5040365;28;45310;-64
2023/08/15 00:49:34;;;;;;;;;5.25;5.00;;;;;23.01;52.91;100848.25;5041087;28;45333;-64
2023/08/15 00:52:00;;;;;;;;;4.25;4.25;;;;;23.00;52.81;100858.09;5040920;28;46370;-65
2023/08/15 00:54:25;;;;;;;;;6.75;4.50;;;;;23.02;52.98;100858.88;5040681;28;45481;-64
2023/08/15 00:56:51;;;;;;;;;6.50;4.50;;;;;23.00;53.07;100855.41;5040791;28;45335;-64
2023/08/15 00:59:16;;;;;;;;;4.50;3.50;;;;;23.02;52.99;100856.19;5040918;28;45463;-65
2023/08/15 01:01:42;;;;;;;;;2.00;2.00;;;;;23.03;53.16;100857.91;5022795;28;45512;-64
2023/08/15 01:04:08;;;;;;;;;5.25;4.00;;;;;23.05;52.99;100861.31;5040604;28;45407;-64
2023/08/15 01:06:33;;;;;;;;;6.50;4.50;;;;;23.04;53.00;100859.63;5040949;28;45270;-65
2023/08/15 01:08:59;;;;;;;;;7.25;4.50;;;;;23.05;53.10;100861.31;5040801;28;45301;-65
2023/08/15 01:11:31;;;;;;;;;5.00;5.00;;;;;23.03;52.82;100855.22;5040166;28;46135;-64
2023/08/15 01:14:02;;;;;;;;;4.75;4.25;;;;;23.05;53.23;100858.66;5029488;28;45355;-65
2023/08/15 01:16:35;;;;;;;;;5.50;5.00;;;;;23.05;53.35;100855.97;5023061;28;45251;-64
2023/08/15 01:19:17;;;;;;;;;5.50;4.00;;;;;23.05;52.80;100855.97;5020816;28;45266;-64
2023/08/15 01:21:48;;;;;;;;;6.00;4.25;;;;;23.05;52.93;100858.66;5020481;28;46152;-65
2023/08/15 01:24:15;;;;;;;;;4.50;4.50;;;;;23.05;53.19;100858.66;5020233;28;45215;-64
2023/08/15 01:26:40;;;;;;;;;4.75;4.75;;;;;23.06;53.31;100862.22;5020483;28;45511;-65
2023/08/15 01:29:06;;;;;;;;;4.50;4.00;;;;;23.05;53.70;100858.66;5020291;28;45350;-64
2023/08/15 01:31:36;;;;;;;;;3.25;3.25;;;;;23.05;53.61;100861.31;5020444;28;46084;-64
2023/08/15 01:34:40;;;;;;;;;5.25;4.25;;;;;23.05;53.39;100863.16;5020254;28;45499;-65
2023/08/15 01:37:29;;;;;;;;;4.50;3.50;;;;;23.04;53.31;100864.13;4920506;28;45425;-64
2023/08/15 01:39:57;;;;;;;;;4.75;3.25;;;;;23.04;53.64;100870.34;4920186;28;45379;-64
2023/08/15 01:42:24;;;;;;;;;3.00;3.00;;;;;23.04;53.38;100881.06;4983722;28;47238;-65
2023/08/15 01:44:50;;;;;;;;;4.25;3.50;;;;;23.04;53.57;100882.88;5019993;28;45428;-64
2023/08/15 01:47:15;;;;;;;;;4.50;3.00;;;;;23.02;53.64;100884.81;5020136;28;45270;-65
2023/08/15 01:49:41;;;;;;;;;4.50;2.75;;;;;23.01;53.65;100885.75;5020235;28;46066;-65
2023/08/15 01:52:06;;;;;;;;;6.00;6.00;;;;;23.00;53.88;100892.94;5020039;28;45454;-64
2023/08/15 01:54:31;;;;;;;;;8.75;4.75;;;;;22.98;53.59;100888.63;5018743;28;51120;-65
2023/08/15 01:56:57;;;;;;;;;7.00;6.00;;;;;22.99;53.73;100887.66;5019954;28;45290;-64
2023/08/15 01:59:22;;;;;;;;;5.00;5.00;;;;;22.97;53.88;100898.50;5030175;28;52212;-65
2023/08/15 02:01:47;;;;;;;;;7.50;6.25;;;;;22.98;53.79;100899.34;5039867;28;46030;-64
2023/08/15 02:04:13;;;;;;;;;7.25;4.75;;;;;22.91;53.96;100895.34;5039357;28;53022;-64
2023/08/15 02:06:38;;;;;;;;;6.75;5.50;;;;;22.94;54.00;100896.00;5040094;28;45238;-65
2023/08/15 02:09:03;;;;;;;;;5.75;5.75;;;;;22.95;54.00;100900.41;5039778;28;45432;-65
2023/08/15 02:11:29;;;;;;;;;7.50;6.25;;;;;22.96;53.76;100896.78;5031644;28;45488;-64
2023/08/15 02:13:54;;;;;;;;;5.50;5.50;;;;;22.95;53.97;100884.31;5038952;28;45246;-64
2023/08/15 02:16:19;;;;;;;;;4.75;4.75;;;;;22.95;54.07;100883.47;5039827;28;45415;-65
2023/08/15 02:18:45;;;;;;;;;4.50;4.00;;;;;22.95;53.83;100891.53;5038022;28;45240;-65
2023/08/15 02:21:10;;;;;;;;;6.00;5.00;;;;;22.93;53.89;100894.31;5039566;28;46287;-65
2023/08/15 02:23:36;;;;;;;;;6.50;5.00;;;;;22.95;54.04;100899.56;5039430;28;45313;-64
2023/08/15 02:26:02;;;;;;;;;6.25;5.25;;;;;22.92;54.11;100900.63;5039142;28;45373;-65
2023/08/15 02:28:28;;;;;;;;;6.00;5.00;;;;;22.92;54.15;100897.94;5027059;28;45321;-65
2023/08/15 02:30:53;;;;;;;;;4.25;4.25;;;;;22.89;54.03;100901.66;5024156;28;45377;-65
2023/08/15 02:33:19;;;;;;;;;6.50;5.25;;;;;22.92;54.00;100910.44;5019561;28;45282;-64
2023/08/15 02:35:44;;;;;;;;;5.25;4.75;;;;;22.90;54.00;100907.88;5019738;28;45357;-64
2023/08/15 02:38:10;;;;;;;;;10.00;6.00;;;;;22.91;54.36;100909.59;5019406;28;49592;-64
2023/08/15 02:40:35;;;;;;;;;7.00;5.00;;;;;22.89;54.23;100898.13;5018996;28;46255;-65
2023/08/15 02:43:00;;;;;;;;;4.00;4.00;;;;;22.88;54.07;100894.59;5019382;28;45329;-65
2023/08/15 02:45:26;;;;;;;;;5.00;5.00;;;;;22.89;54.38;100900.78;5001779;28;45326;-65
2023/08/15 02:47:51;;;;;;;;;5.50;4.25;;;;;22.87;54.65;100898.22;5019658;28;45255;-65
2023/08/15 02:50:16;;;;;;;;;4.50;4.25;;;;;22.81;54.53;100879.00;5019324;28;45943;-65
2023/08/15 02:52:42;;;;;;;;;5.00;5.00;;;;;22.81;54.62;100887.88;5018119;28;45189;-65
2023/08/15 02:55:07;;;;;;;;;6.00;3.75;;;;;22.80;54.53;100880.81;5019060;28;45379;-65
2023/08/15 02:57:33;;;;;;;;;6.50;4.75;;;;;22.78;54.61;100889.91;5019372;28;45202;-65
2023/08/15 02:59:58;;;;;;;;;5.75;5.00;;;;;22.79;54.52;100888.94;5034484;28;46296;-65
2023/08/15 03:02:23;;;;;;;;;7.50;5.00;;;;;22.76;54.69;100889.16;5039335;28;45237;-65
2023/08/15 03:04:49;;;;;;;;;7.50;3.75;;;;;22.78;54.57;100895.25;5037719;28;45242;-65
2023/08/15 03:07:14;;;;;;;;;3.00;3.00;;;;;22.75;54.43;100882.06;5042767;28;45242;-65
2023/08/15 03:09:40;;;;;;;;;5.25;4.25;;;;;22.76;54.62;100898.03;5040534;28;46335;-65
2023/08/15 03:12:05;;;;;;;;;8.00;5.75;;;;;22.77;54.84;100897.09;5042245;28;45258;-65
2023/08/15 03:14:30;;;;;;;;;4.25;3.50;;;;;22.77;54.81;100899.75;5042651;28;46046;-65
2023/08/15 03:16:56;;;;;;;;;7.25;4.75;;;;;22.76;54.72;100898.03;5042621;28;45445;-65
2023/08/15 03:19:21;;;;;;;;;5.50;5.00;;;;;22.76;54.39;100895.34;5042278;28;45321;-65
2023/08/15 03:21:47;;;;;;;;;5.25;4.75;;;;;22.75;54.67;100892.78;5042366;28;45335;-65
2023/08/15 03:24:12;;;;;;;;;5.00;3.25;;;;;22.77;54.71;100898.91;5042325;28;45271;-65
2023/08/15 03:26:37;;;;;;;;;5.25;4.75;;;;;22.76;54.80;100900.72;5041797;28;45388;-65
2023/08/15 03:29:03;;;;;;;;;5.25;4.75;;;;;22.71;54.81;100889.44;5042161;28;48775;-65
2023/08/15 03:31:28;;;;;;;;;5.00;5.00;;;;;22.75;54.65;100908.84;5042303;28;45396;-65
2023/08/15 03:33:54;;;;;;;;;6.00;4.00;;;;;22.76;54.62;100913.25;5042436;28;45333;-65
2023/08/15 03:36:19;;;;;;;;;5.25;5.25;;;;;22.71;54.86;100908.19;5042213;28;45382;-65
2023/08/15 03:38:44;;;;;;;;;7.00;5.75;;;;;22.78;54.90;100924.72;5042124;28;45345;-65
2023/08/15 03:41:09;;;;;;;;;6.50;5.75;;;;;22.77;54.93;100926.56;5040553;28;45325;-65
2023/08/15 03:43:35;;;;;;;;;6.00;6.00;;;;;22.77;54.88;100929.22;5042180;28;45325;-65
2023/08/15 03:46:02;;;;;;;;;5.75;5.00;;;;;22.78;54.94;100932.75;5041335;28;45179;-65
2023/08/15 03:48:31;;;;;;;;;5.00;3.50;;;;;22.77;55.10;100936.41;5041857;28;45250;-65
2023/08/15 03:50:57;;;;;;;;;7.25;6.00;;;;;22.77;55.17;100939.09;5024007;28;45416;-65
2023/08/15 03:53:23;;;;;;;;;4.50;3.50;;;;;22.77;54.88;100947.97;5042059;28;45324;-65
2023/08/15 03:55:52;;;;;;;;;5.25;3.25;;;;;22.76;55.09;100950.75;5041483;28;45319;-65
2023/08/15 03:58:21;;;;;;;;;6.75;5.00;;;;;22.77;55.24;100965.88;5041716;28;45287;-65
2023/08/15 04:00:48;;;;;;;;;6.00;5.75;;;;;22.76;54.88;100961.47;5042069;28;45309;-65
2023/08/15 04:03:14;;;;;;;;;5.75;5.00;;;;;22.77;55.27;100972.09;5041577;28;45445;-65
2023/08/15 04:05:39;;;;;;;;;3.00;3.00;;;;;22.76;55.03;100964.16;5041559;28;45344;-65
2023/08/15 04:08:05;;;;;;;;;6.00;4.00;;;;;22.73;55.35;100967.88;5041347;28;45981;-65
2023/08/15 04:10:30;;;;;;;;;4.25;4.25;;;;;22.69;55.53;100977.91;5041396;28;45238;-65
2023/08/15 04:12:56;;;;;;;;;7.50;4.00;;;;;22.68;55.31;100973.50;5041431;28;52606;-65
2023/08/15 04:15:21;;;;;;;;;4.00;4.00;;;;;22.65;55.30;100979.03;5041560;28;45487;-65
2023/08/15 04:17:47;;;;;;;;;5.00;4.00;;;;;22.56;55.51;100971.59;5040776;28;45991;-65
2023/08/15 04:20:13;;;;;;;;;5.25;4.50;;;;;22.59;55.11;100987.47;5041560;28;45308;-65
2023/08/15 04:22:38;;;;;;;;;7.00;5.75;;;;;22.57;55.23;100986.69;5041625;28;45479;-65
2023/08/15 04:25:07;;;;;;;;;5.50;4.25;;;;;22.53;55.06;100980.66;5040883;28;45296;-65
2023/08/15 04:27:32;;;;;;;;;3.50;3.50;;;;;22.49;55.46;100988.97;5041363;28;46315;-65
2023/08/15 04:29:58;;;;;;;;;4.75;4.75;;;;;22.46;54.94;100991.84;5041272;28;45336;-65
2023/08/15 04:32:23;;;;;;;;;7.00;5.75;;;;;22.41;55.38;100984.09;5041373;28;45401;-65
2023/08/15 04:34:48;;;;;;;;;3.75;3.00;;;;;22.38;55.09;100981.59;5041279;28;45395;-65
2023/08/15 04:37:14;;;;;;;;;4.00;3.75;;;;;22.32;55.26;100982.78;5041093;28;46306;-65
2023/08/15 04:39:39;;;;;;;;;5.00;5.00;;;;;22.32;54.66;100998.00;5040930;28;45342;-65
2023/08/15 04:42:04;;;;;;;;;5.75;3.00;;;;;22.31;55.02;100996.28;5040848;28;47930;-65
2023/08/15 04:44:30;;;;;;;;;4.75;4.75;;;;;22.27;54.86;100994.75;5041298;28;45365;-65
2023/08/15 04:46:55;;;;;;;;;8.25;5.00;;;;;22.24;55.20;100987.75;5040865;28;45306;-65
2023/08/15 04:49:20;;;;;;;;;4.75;4.00;;;;;22.15;54.59;100991.84;5041058;28;49558;-65
2023/08/15 04:51:45;;;;;;;;;3.75;2.75;;;;;22.15;54.81;101001.66;5041073;28;45251;-65
2023/08/15 04:54:11;;;;;;;;;4.75;3.50;;;;;22.14;55.17;101003.50;5040858;28;45239;-65
2023/08/15 04:56:36;;;;;;;;;3.00;2.00;;;;;22.11;54.49;101000.97;5040649;28;46436;-65
2023/08/15 04:59:01;;;;;;;;;5.75;4.00;;;;;22.08;54.96;101002.03;5040630;28;48844;-65
2023/08/15 05:01:28;;;;;;;;;5.25;5.25;;;;;22.05;54.74;101010.25;5040941;28;45171;-65
2023/08/15 05:03:53;;;;;;;;;6.00;4.25;;;;;22.03;54.47;101006.78;5040723;28;45334;-65
2023/08/15 05:06:18;;;;;;;;;3.00;3.00;;;;;22.01;54.62;101006.03;5040591;28;46151;-65
2023/08/15 05:08:44;;;;;;;;;4.00;4.00;;;;;22.00;54.73;101011.44;5022873;28;45253;-65
2023/08/15 05:11:09;;;;;;;;;6.75;4.00;;;;;21.97;54.95;101007.13;5040458;28;45534;-65
2023/08/15 05:13:34;;;;;;;;;3.25;3.25;;;;;21.94;54.68;101001.97;5040631;28;45257;-65
2023/08/15 05:16:00;;;;;;;;;4.00;4.00;;;;;21.92;54.86;101010.09;5039290;28;47112;-65
2023/08/15 05:18:25;;;;;;;;;6.00;6.00;;;;;21.91;54.63;101015.50;5040828;28;45416;-65
2023/08/15 05:20:50;;;;;;;;;4.50;4.00;;;;;21.89;54.56;101009.41;5040778;28;45233;-65
2023/08/15 05:23:16;;;;;;;;;4.00;4.00;;;;;21.84;54.71;101000.78;5040369;28;45352;-65
2023/08/15 05:25:43;;;;;;;;;5.00;5.00;;;;;21.88;55.06;101016.56;5040060;28;47031;-65
2023/08/15 05:28:09;;;;;;;;;4.75;4.50;;;;;21.88;54.88;101021.06;5040223;28;45340;-65
2023/08/15 05:30:34;;;;;;;;;6.50;3.75;;;;;21.88;54.72;101029.06;5039602;28;45438;-65
2023/08/15 05:33:00;;;;;;;;;4.75;3.75;;;;;21.85;54.35;101021.25;5040342;28;45442;-65
2023/08/15 05:35:26;;;;;;;;;6.00;4.00;;;;;21.84;54.64;101023.03;5040265;28;46466;-65
2023/08/15 05:37:51;;;;;;;;;5.25;4.00;;;;;21.82;54.33;101030.28;5039689;28;45284;-65
2023/08/15 05:40:17;;;;;;;;;5.00;5.00;;;;;21.82;54.80;101026.75;5040167;28;45607;-65
2023/08/15 05:42:42;;;;;;;;;6.00;3.50;;;;;21.80;54.60;101031.31;5040282;28;45257;-65
2023/08/15 05:45:09;;;;;;;;;7.00;5.00;;;;;21.79;55.10;101038.50;5038532;28;46898;-65
2023/08/15 05:47:34;;;;;;;;;6.50;6.00;;;;;21.78;54.72;101030.56;5040337;28;45249;-65
2023/08/15 05:50:00;;;;;;;;;4.00;4.00;;;;;21.76;55.08;101044.03;5040247;28;45249;-65
2023/08/15 05:52:26;;;;;;;;;4.50;4.50;;;;;21.75;55.14;101043.16;5040201;28;45202;-65
2023/08/15 05:54:51;;;;;;;;;4.75;4.75;;;;;21.68;54.69;101032.88;5039561;28;45456;-65
2023/08/15 05:57:17;;;;;;;;;4.50;4.50;;;;;21.73;54.65;101038.84;5039487;28;45379;-65
2023/08/15 05:59:42;;;;;;;;;3.75;3.00;;;;;21.71;55.19;101046.94;5040302;28;45564;-65
2023/08/15 06:02:07;;;;;;;;;6.00;4.50;;;;;21.68;54.68;101052.44;5039883;28;45321;-65
2023/08/15 06:04:33;;;;;;;;;5.00;5.00;;;;;21.67;55.06;101044.53;5039905;28;45328;-65
2023/08/15 06:06:58;;;;;;;;;4.50;3.50;;;;;21.66;55.23;101049.03;5039213;28;58631;-65
2023/08/15 06:09:23;;;;;;;;;6.75;5.75;;;;;21.67;54.66;101055.22;5039893;28;45353;-65
2023/08/15 06:11:50;;;;;;;;;4.25;4.25;;;;;21.64;55.32;101048.22;5038329;28;45596;-65
2023/08/15 06:14:17;;;;;;;;;8.25;5.00;;;;;21.63;55.27;101059.03;5039896;28;45674;-65
2023/08/15 06:16:42;;;;;;;;;5.25;3.00;;;;;21.61;54.91;101060.91;5038292;28;45296;-65
2023/08/15 06:19:08;;;;;;;;;7.00;6.00;;;;;21.60;55.27;101073.44;5026754;28;45164;-64
2023/08/15 06:21:33;;;;;;;;;6.25;5.75;;;;;21.61;55.10;101072.50;5019523;28;45482;-65
2023/08/15 06:23:58;;;;;;;;;7.75;7.75;;;;;21.59;54.99;101079.72;5019029;28;45409;-65
2023/08/15 06:26:24;;;;;;;;;7.00;6.25;;;;;21.60;55.21;101084.13;5019614;28;45399;-65
2023/08/15 06:28:50;;;;;;;;;6.25;5.00;;;;;21.56;55.14;101080.75;5019917;28;45312;-65
2023/08/15 06:31:15;;;;;;;;;9.75;7.00;;;;;21.59;54.85;101095.75;5002087;28;45298;-65
2023/08/15 06:33:40;;;;;;;;;5.00;4.00;;;;;21.58;54.98;101105.59;5019095;28;45566;-65
2023/08/15 06:36:06;;;;;;;;;8.00;7.00;;;;;21.56;54.98;101096.78;5019317;28;46725;-65
2023/08/15 06:38:31;;;;;;;;;6.00;5.00;;;;;21.56;55.35;101102.13;5019663;28;45955;-65
2023/08/15 06:40:58;;;;;;;;;7.00;5.25;;;;;21.56;55.49;101111.97;5020766;28;45459;-65
2023/08/15 06:43:23;;;;;;;;;9.00;5.50;;;;;21.55;55.54;101119.13;5023000;28;46210;-65
2023/08/15 06:45:48;;;;;;;;;7.50;5.75;;;;;21.54;55.15;101112.00;5022749;28;45313;-65
2023/08/15 06:48:14;;;;;;;;;6.00;5.00;;;;;21.55;55.10;101120.91;5023443;28;45293;-65
2023/08/15 06:50:40;;;;;;;;;5.00;5.00;;;;;21.52;55.27;101121.06;5023050;28;45258;-65
2023/08/15 06:53:05;;;;;;;;;5.00;5.00;;;;;21.52;55.57;101129.09;5023010;28;45495;-65
2023/08/15 06:55:30;;;;;;;;;5.00;5.00;;;;;21.51;55.68;101130.91;5022538;28;45284;-65
2023/08/15 06:57:56;;;;;;;;;5.25;5.25;;;;;21.52;55.26;101129.09;5023174;28;45297;-65
2023/08/15 07:00:22;;;;;;;;;5.25;4.00;;;;;21.54;55.66;101137.91;5041237;28;45329;-65
2023/08/15 07:02:47;;;;;;;;;5.00;5.00;;;;;21.53;55.56;101139.69;5042717;28;45230;-65
2023/08/15 07:05:12;;;;;;;;;9.50;7.25;;;;;21.49;55.71;101129.25;5041093;28;45263;-65
2023/08/15 07:07:38;;;;;;;;;8.00;4.50;;;;;21.55;55.75;101136.97;5042881;28;45213;-65
2023/08/15 07:10:07;;;;;;;;;6.50;5.75;;;;;21.53;55.18;101134.34;5041437;28;45257;-65
2023/08/15 07:12:35;;;;;;;;;2.00;2.00;;;;;21.56;55.53;101141.41;5042633;28;45400;-65
2023/08/15 07:15:01;;;;;;;;;6.50;5.25;;;;;21.55;55.54;101137.84;5042133;28;45312;-65
2023/08/15 07:17:27;;;;;;;;;6.25;5.25;;;;;21.58;55.61;101148.38;5042696;28;45276;-65
2023/08/15 07:19:52;;;;;;;;;6.25;5.00;;;;;21.59;55.51;101143.88;5042191;28;46458;-65
2023/08/15 07:22:17;;;;;;;;;5.75;5.75;;;;;21.60;55.99;101148.28;5041432;28;45481;-65
2023/08/15 07:24:43;;;;;;;;;5.50;5.50;;;;;21.61;55.66;101152.69;5041975;28;45315;-65
2023/08/15 07:27:08;;;;;;;;;6.25;3.50;;;;;21.64;55.47;101157.88;5042402;28;45249;-65
2023/08/15 07:29:33;;;;;;;;;4.00;4.00;;;;;21.62;55.79;101151.72;5042276;28;45226;-65
2023/08/15 07:31:59;;;;;;;;;5.50;4.25;;;;;21.67;55.83;101159.50;5042415;28;45329;-65
2023/08/15 07:34:24;;;;;;;;;6.50;5.25;;;;;21.67;55.62;101146.13;5042175;28;45240;-65
2023/08/15 07:36:49;;;;;;;;;5.00;5.00;;;;;21.68;55.90;101155.91;5042416;28;45167;-65
2023/08/15 07:39:15;;;;;;;;;4.25;4.25;;;;;21.68;55.50;101154.06;5041598;28;52364;-65
2023/08/15 07:41:41;;;;;;;;;4.50;4.00;;;;;21.71;55.71;101151.25;5042210;28;45460;-65
2023/08/15 07:44:07;;;;;;;;;4.75;4.25;;;;;21.72;55.86;101165.47;5041863;28;45463;-65
2023/08/15 07:46:32;;;;;;;;;4.25;4.25;;;;;21.75;55.54;101155.47;5042294;28;45575;-65
2023/08/15 07:48:57;;;;;;;;;6.75;4.50;;;;;21.75;55.89;101150.13;5041947;28;45334;-65
2023/08/15 07:51:23;;;;;;;;;5.25;3.50;;;;;21.74;55.49;101153.75;5041471;28;46832;-65
2023/08/15 07:53:48;;;;;;;;;4.25;4.25;;;;;21.77;55.68;101155.38;5039693;28;45382;-65
2023/08/15 07:56:13;;;;;;;;;4.75;3.25;;;;;21.80;55.45;101155.22;5041655;28;49045;-65
2023/08/15 07:58:38;;;;;;;;;6.00;4.25;;;;;21.82;55.78;101149.78;5041581;28;45278;-65
2023/08/15 08:01:04;;;;;;;;;4.00;4.00;;;;;21.83;55.83;101155.03;5041849;28;46403;-65
2023/08/15 08:03:30;;;;;;;;;4.50;4.00;;;;;21.87;55.53;101155.75;5041645;28;45257;-65
2023/08/15 08:05:55;;;;;;;;;4.25;3.25;;;;;21.87;55.79;101145.03;5042004;28;45439;-65
2023/08/15 08:08:20;;;;;;;;;7.75;6.00;;;;;21.91;55.90;101143.91;5041783;28;45483;-65
2023/08/15 08:10:46;;;;;;;;;4.00;3.50;;;;;21.93;55.64;101144.72;5041312;28;46118;-65
2023/08/15 08:13:16;;;;;;;;;6.25;5.25;;;;;21.94;55.44;101143.75;5041478;28;45230;-65
2023/08/15 08:15:42;;;;;;;;;9.25;9.00;;;;;22.00;55.94;101139.88;5041787;28;45373;-65
2023/08/15 08:18:07;;;;;;;;;4.25;3.75;;;;;22.01;55.73;101136.25;5041480;28;45472;-65
2023/08/15 08:20:32;;;;;;;;;5.75;4.00;;;;;22.05;55.69;101138.69;5041522;28;45365;-65
2023/08/15 08:22:58;;;;;;;;;41.50;35.25;;;;;22.08;55.39;101143.00;5041252;28;45331;-65
2023/08/15 08:25:24;;;;;;;;;6.00;3.50;;;;;22.14;55.68;101139.09;5023315;28;45460;-65
2023/08/15 08:27:50;;;;;;;;;6.25;3.50;;;;;22.15;55.66;101133.66;5041247;28;45380;-65
2023/08/15 08:30:18;;;;;;;;;5.25;5.00;;;;;22.18;55.50;101133.47;5041226;28;46049;-65
2023/08/15 08:32:44;;;;;;;;;4.00;4.00;;;;;22.22;55.37;101127.00;5041215;28;45363;-65
2023/08/15 08:35:10;;;;;;;;;2.00;2.00;;;;;22.26;55.77;101130.38;5041403;28;45261;-65
2023/08/15 08:37:36;;;;;;;;;3.50;3.00;;;;;22.29;55.75;101132.88;5038116;28;45462;-65
2023/08/15 08:40:04;;;;;;;;;6.25;5.00;;;;;22.33;55.91;101139.78;5029637;28;45342;-65
2023/08/15 08:42:29;;;;;;;;;4.00;4.00;;;;;22.37;55.50;101138.66;5021295;28;45488;-65
2023/08/15 08:44:55;;;;;;;;;5.75;4.00;;;;;22.42;55.84;101137.56;5021080;28;45258;-65
2023/08/15 08:47:24;;;;;;;;;3.00;3.00;;;;;22.46;55.35;101141.78;5021068;28;45524;-65
2023/08/15 08:49:52;;;;;;;;;3.75;3.75;;;;;22.48;55.18;101138.06;5021066;28;47013;-65
2023/08/15 08:52:18;;;;;;;;;7.50;5.00;;;;;22.52;55.56;101141.44;5020833;28;45488;-65
2023/08/15 08:54:44;;;;;;;;;4.25;2.25;;;;;22.55;55.13;101136.75;5020950;28;45389;-65
2023/08/15 08:57:11;;;;;;;;;5.50;5.00;;;;;22.60;55.22;101135.63;5002993;28;45435;-65
2023/08/15 08:59:39;;;;;;;;;5.50;5.00;;;;;22.66;55.58;101141.47;5033137;28;46155;-65
2023/08/15 09:02:10;;;;;;;;;5.00;4.00;;;;;22.72;55.20;101141.09;5040863;28;45269;-65
2023/08/15 09:04:35;;;;;;;;;4.00;4.00;;;;;22.78;55.18;101139.91;5027045;28;45538;-65
2023/08/15 09:07:01;;;;;;;;;4.25;4.00;;;;;22.83;55.46;101143.16;5020866;28;45435;-65
2023/08/15 09:09:26;;;;;;;;;2.75;2.00;;;;;22.87;55.37;101150.06;5020631;28;45283;-65
2023/08/15 09:11:52;;;;;;;;;3.25;2.50;;;;;22.94;55.20;101144.34;5012903;28;45199;-65
2023/08/15 09:14:18;;;;;;;;;5.50;4.75;;;;;22.98;55.28;101140.50;5040837;28;45223;-65
2023/08/15 09:16:48;;;;;;;;;4.50;4.25;;;;;23.07;54.93;101134.59;5040802;28;45230;-65
2023/08/15 09:19:15;;;;;;;;;3.75;3.25;;;;;23.12;55.09;101139.66;5039421;28;45444;-65
2023/08/15 09:21:40;;;;;;;;;2.25;2.25;;;;;23.20;55.10;101145.47;5040581;28;45510;-65
2023/08/15 09:24:06;;;;;;;;;3.75;3.50;;;;;23.27;54.91;101151.31;5040220;28;45347;-65
2023/08/15 09:26:34;;;;;;;;;5.75;3.25;;;;;23.32;54.99;101147.41;5039145;28;45503;-65
2023/08/15 09:28:59;;;;;;;;;2.00;2.00;;;;;23.40;54.73;101156.78;5040230;28;46391;-66
2023/08/15 09:31:24;;;;;;;;;2.50;2.50;;;;;23.46;54.80;101159.94;5038441;28;45204;-65
2023/08/15 09:33:50;;;;;;;;;3.25;3.25;;;;;23.48;54.59;101152.69;5040379;28;45691;-65
2023/08/15 09:36:15;;;;;;;;;3.50;2.75;;;;;23.57;54.39;101151.25;5040483;28;45286;-65
2023/08/15 09:38:41;;;;;;;;;3.00;3.00;;;;;23.65;54.12;101158.81;5039952;28;46227;-65
2023/08/15 09:41:11;;;;;;;;;3.50;3.50;;;;;23.72;54.04;101156.59;5040314;28;45498;-65
2023/08/15 09:43:36;;;;;;;;;5.25;4.25;;;;;23.78;54.23;101150.84;5038619;28;45356;-65
2023/08/15 09:46:02;;;;;;;;;3.25;3.00;;;;;23.85;53.75;101155.72;5026314;28;45273;-65
2023/08/15 09:48:28;;;;;;;;;4.75;2.75;;;;;23.91;53.40;101145.53;5026113;28;45366;-65
2023/08/15 09:50:57;;;;;;;;;3.75;3.00;;;;;23.99;53.69;101144.13;5020232;28;45333;-66
2023/08/15 09:53:23;;;;;;;;;3.25;3.25;;;;;24.09;53.55;101149.75;5020129;28;45303;-65
2023/08/15 09:55:50;;;;;;;;;5.25;5.25;;;;;24.17;53.57;101152.78;5018272;28;45433;-65
2023/08/15 09:58:16;;;;;;;;;5.00;3.25;;;;;24.27;53.28;101147.69;5020961;28;45336;-65
2023/08/15 10:00:43;;;;;;;;;4.00;4.00;;;;;24.38;53.53;101143.41;5040135;28;45225;-65
2023/08/15 10:03:19;;;;;;;;;5.50;4.75;;;;;24.52;53.77;101139.84;5039702;28;45407;-65
2023/08/15 10:05:53;;;;;;;;;4.00;4.00;;;;;24.65;53.11;101136.25;5039949;28;45296;-65
2023/08/15 10:08:20;;;;;;;;;4.75;3.00;;;;;24.81;53.37;101146.81;5039472;28;45840;-65
2023/08/15 10:10:49;;;;;;;;;4.00;3.00;;;;;24.99;53.40;101147.41;5038494;28;45300;-65
2023/08/15 10:13:16;;;;;;;;;3.00;3.00;;;;;25.19;53.03;101149.66;5039615;28;45309;-65
2023/08/15 10:15:42;;;;;;;;;3.00;3.00;;;;;25.40;52.87;101136.59;5020851;28;45403;-65
2023/08/15 10:18:08;;;;;;;;;2.00;2.00;;;;;25.63;53.08;101143.88;5039427;28;45198;-65
2023/08/15 10:20:38;;;;;;;;;2.00;2.00;;;;;25.91;52.21;101143.69;5039657;28;45277;-65
2023/08/15 10:23:07;;;;;;;;;6.00;3.00;;;;;26.20;52.87;101146.09;5039387;28;46553;-65
2023/08/15 10:25:35;;;;;;;;;3.00;3.00;;;;;26.54;53.03;101149.84;5037700;28;45400;-65
2023/08/15 10:28:04;;;;;;;;;2.75;2.75;;;;;26.88;52.60;101150.00;5039323;28;45425;-65
2023/08/15 10:30:36;;;;;;;;;4.25;3.00;;;;;27.29;52.79;101149.59;5039361;28;45444;-65
2023/08/15 10:33:13;;;;;;;;;8.25;3.00;;;;;27.68;52.70;101153.66;5039695;28;45586;-65
2023/08/15 10:35:54;;;;;;;;;4.25;2.25;;;;;28.05;52.06;101152.56;5039220;28;45344;-65
2023/08/15 10:38:26;;;;;;;;;4.25;3.00;;;;;28.35;51.56;101149.16;5039242;28;46186;-66
2023/08/15 10:40:54;;;;;;;;;4.75;3.75;;;;;28.59;50.96;101156.19;5038819;28;45335;-65
2023/08/15 10:43:25;;;;;;;;;4.00;4.00;;;;;28.81;50.39;101155.25;5039430;28;45337;-66
2023/08/15 10:45:52;;;;;;;;;2.75;2.75;;;;;28.97;50.69;101156.66;5039012;28;45427;-65
2023/08/15 10:48:44;;;;;;;;;2.50;2.50;;;;;29.09;50.12;101152.88;5021333;28;48220;-65
2023/08/15 10:51:35;;;;;;;;;3.00;2.00;;;;;29.17;49.48;101152.22;5039312;28;45333;-65
2023/08/15 10:54:06;;;;;;;;;5.75;4.00;;;;;29.22;49.73;101149.09;5038986;28;45277;-65
2023/08/15 10:56:34;;;;;;;;;4.50;3.00;;;;;29.27;49.11;101157.69;5038961;28;45320;-65
2023/08/15 10:59:07;;;;;;;;;4.25;4.25;;;;;29.25;49.05;101154.25;5039106;28;45290;-66
2023/08/15 11:01:35;;;;;;;;;2.25;2.25;;;;;29.28;48.53;101157.59;5038547;28;45261;-66
2023/08/15 11:04:02;;;;;;;;;4.50;3.00;;;;;29.30;48.75;101161.00;5038956;28;45380;-66
2023/08/15 11:06:29;;;;;;;;;3.25;3.25;;;;;29.28;48.15;101162.09;5038936;28;45545;-66
2023/08/15 11:08:58;;;;;;;;;4.50;3.25;;;;;29.25;47.91;101157.81;5038797;28;46011;-66
2023/08/15 11:11:24;;;;;;;;;2.50;2.50;;;;;29.22;47.93;101170.75;5038780;28;45545;-66
2023/08/15 11:13:52;;;;;;;;;1.75;1.75;;;;;29.17;47.96;101166.59;5038277;28;45501;-66
2023/08/15 11:16:19;;;;;;;;;3.75;3.75;;;;;29.13;47.83;101175.09;5020984;28;45477;-66
2023/08/15 11:18:46;;;;;;;;;5.25;3.50;;;;;29.06;47.53;101174.78;5038771;28;45439;-66
2023/08/15 11:21:13;;;;;;;;;3.00;3.00;;;;;28.97;47.24;101172.88;5038773;28;45261;-66